sensor_id;sensor_type;location;lat;lon;timestamp;temperature;humidity
17172;DHT22;8701;50.150;8.756;2022-09-09T00:01:46;18.90;99.90
17172;DHT22;8701;50.150;8.756;2022-09-09T00:05:57;18.70;99.90
17172;DHT22;8701;50.150;8.756;2022-09-09T00:10:09;18.80;99.90
17172;DHT22;8701;50.150;8.756;2022-09-09T00:14:22;19.00;99.90
17172;DHT22;8701;50.150;8.756;2022-09-09T00:18:28;18.90;99.90
17172;DHT22;8701;50.150;8.756;2022-09-09T00:22:35;18.90;99.90
17172;DHT22;8701;50.150;8.756;2022-09-09T00:26:42;18.90;99.90
17172;DHT22;8701;50.150;8.756;2022-09-09T00:30:47;18.80;99.90
17172;DHT22;8701;50.150;8.756;2022-09-09T00:34:53;19.00;99.90
17172;DHT22;8701;50.150;8.756;2022-09-09T00:39:00;18.80;99.90
17172;DHT22;8701;50.150;8.756;2022-09-09T00:43:24;18.70;99.90
17172;DHT22;8701;50.150;8.756;2022-09-09T00:47:39;18.70;99.90
17172;DHT22;8701;50.150;8.756;2022-09-09T00:51:48;18.60;99.90
17172;DHT22;8701;50.150;8.756;2022-09-09T00:56:09;18.60;99.90
17172;DHT22;8701;50.150;8.756;2022-09-09T01:00:22;18.50;99.90
17172;DHT22;8701;50.150;8.756;2022-09-09T01:04:29;18.40;99.90
17172;DHT22;8701;50.150;8.756;2022-09-09T01:08:48;18.40;99.90
17172;DHT22;8701;50.150;8.756;2022-09-09T01:12:56;18.40;99.90
17172;DHT22;8701;50.150;8.756;2022-09-09T01:17:04;18.40;99.90
17172;DHT22;8701;50.150;8.756;2022-09-09T01:21:18;18.40;99.90
17172;DHT22;8701;50.150;8.756;2022-09-09T01:25:29;18.30;99.90
17172;DHT22;8701;50.150;8.756;2022-09-09T01:29:41;18.30;99.90
17172;DHT22;8701;50.150;8.756;2022-09-09T01:33:44;18.20;99.90
17172;DHT22;8701;50.150;8.756;2022-09-09T01:37:47;18.10;99.90
17172;DHT22;8701;50.150;8.756;2022-09-09T01:41:50;18.20;99.90
17172;DHT22;8701;50.150;8.756;2022-09-09T01:45:58;18.10;99.90
17172;DHT22;8701;50.150;8.756;2022-09-09T01:50:02;18.10;99.90
17172;DHT22;8701;50.150;8.756;2022-09-09T01:54:06;18.00;99.90
17172;DHT22;8701;50.150;8.756;2022-09-09T01:58:37;18.00;99.90
17172;DHT22;8701;50.150;8.756;2022-09-09T02:02:52;17.90;99.90
17172;DHT22;8701;50.150;8.756;2022-09-09T02:07:13;17.80;99.90
17172;DHT22;8701;50.150;8.756;2022-09-09T02:11:19;17.80;99.90
17172;DHT22;8701;50.150;8.756;2022-09-09T02:15:40;17.70;99.90
17172;DHT22;8701;50.150;8.756;2022-09-09T02:19:49;17.40;99.90
17172;DHT22;8701;50.150;8.756;2022-09-09T02:24:03;17.40;99.90
17172;DHT22;8701;50.150;8.756;2022-09-09T02:28:14;17.50;99.90
17172;DHT22;8701;50.150;8.756;2022-09-09T02:32:21;17.50;99.90
17172;DHT22;8701;50.150;8.756;2022-09-09T02:36:28;17.60;99.90
17172;DHT22;8701;50.150;8.756;2022-09-09T02:40:32;17.60;99.90
17172;DHT22;8701;50.150;8.756;2022-09-09T02:44:38;17.60;99.90
17172;DHT22;8701;50.150;8.756;2022-09-09T02:48:50;17.60;99.90
17172;DHT22;8701;50.150;8.756;2022-09-09T02:53:06;17.60;99.90
17172;DHT22;8701;50.150;8.756;2022-09-09T02:57:17;17.60;99.90
17172;DHT22;8701;50.150;8.756;2022-09-09T03:01:23;17.70;99.90
17172;DHT22;8701;50.150;8.756;2022-09-09T03:05:28;17.90;99.90
17172;DHT22;8701;50.150;8.756;2022-09-09T03:09:32;17.60;99.90
17172;DHT22;8701;50.150;8.756;2022-09-09T03:13:34;17.70;99.90
17172;DHT22;8701;50.150;8.756;2022-09-09T03:17:37;17.80;99.90
17172;DHT22;8701;50.150;8.756;2022-09-09T03:21:40;17.90;99.90
17172;DHT22;8701;50.150;8.756;2022-09-09T03:25:47;17.90;99.90
17172;DHT22;8701;50.150;8.756;2022-09-09T03:29:52;17.90;99.90
17172;DHT22;8701;50.150;8.756;2022-09-09T03:33:58;18.10;99.90
17172;DHT22;8701;50.150;8.756;2022-09-09T03:38:04;17.90;99.90
17172;DHT22;8701;50.150;8.756;2022-09-09T03:42:12;17.90;99.90
17172;DHT22;8701;50.150;8.756;2022-09-09T03:46:15;17.90;99.90
17172;DHT22;8701;50.150;8.756;2022-09-09T03:50:17;17.90;99.90
17172;DHT22;8701;50.150;8.756;2022-09-09T03:54:22;17.90;99.90
17172;DHT22;8701;50.150;8.756;2022-09-09T03:58:26;18.00;99.90
17172;DHT22;8701;50.150;8.756;2022-09-09T04:02:34;17.80;99.90
17172;DHT22;8701;50.150;8.756;2022-09-09T04:06:36;17.80;99.90
17172;DHT22;8701;50.150;8.756;2022-09-09T04:10:39;17.80;99.90
17172;DHT22;8701;50.150;8.756;2022-09-09T04:14:42;17.70;99.90
17172;DHT22;8701;50.150;8.756;2022-09-09T04:18:45;17.70;99.90
17172;DHT22;8701;50.150;8.756;2022-09-09T04:22:51;17.60;99.90
17172;DHT22;8701;50.150;8.756;2022-09-09T04:26:53;17.60;99.90
17172;DHT22;8701;50.150;8.756;2022-09-09T04:31:04;17.60;99.90
17172;DHT22;8701;50.150;8.756;2022-09-09T04:35:07;17.60;99.90
17172;DHT22;8701;50.150;8.756;2022-09-09T04:39:10;17.60;99.90
17172;DHT22;8701;50.150;8.756;2022-09-09T04:43:14;17.60;99.90
17172;DHT22;8701;50.150;8.756;2022-09-09T04:47:19;17.60;99.90
17172;DHT22;8701;50.150;8.756;2022-09-09T04:51:22;17.60;99.90
17172;DHT22;8701;50.150;8.756;2022-09-09T04:55:26;17.60;99.90
17172;DHT22;8701;50.150;8.756;2022-09-09T04:59:28;17.60;99.90
17172;DHT22;8701;50.150;8.756;2022-09-09T05:03:35;17.80;99.90
17172;DHT22;8701;50.150;8.756;2022-09-09T05:07:41;17.60;99.90
17172;DHT22;8701;50.150;8.756;2022-09-09T05:11:43;17.70;99.90
17172;DHT22;8701;50.150;8.756;2022-09-09T05:15:56;17.70;99.90
17172;DHT22;8701;50.150;8.756;2022-09-09T05:19:59;17.70;99.90
17172;DHT22;8701;50.150;8.756;2022-09-09T05:24:05;17.80;99.90
17172;DHT22;8701;50.150;8.756;2022-09-09T05:28:08;17.90;99.90
17172;DHT22;8701;50.150;8.756;2022-09-09T05:32:12;17.90;99.90
17172;DHT22;8701;50.150;8.756;2022-09-09T05:36:20;17.90;99.90
17172;DHT22;8701;50.150;8.756;2022-09-09T05:40:26;17.90;99.90
17172;DHT22;8701;50.150;8.756;2022-09-09T05:44:29;18.00;99.90
17172;DHT22;8701;50.150;8.756;2022-09-09T05:48:33;18.00;99.90
17172;DHT22;8701;50.150;8.756;2022-09-09T05:52:37;17.90;99.90
17172;DHT22;8701;50.150;8.756;2022-09-09T05:56:41;18.00;99.90
17172;DHT22;8701;50.150;8.756;2022-09-09T06:00:44;18.10;99.90
17172;DHT22;8701;50.150;8.756;2022-09-09T06:04:47;17.80;99.90
17172;DHT22;8701;50.150;8.756;2022-09-09T06:08:53;18.10;99.90
17172;DHT22;8701;50.150;8.756;2022-09-09T06:13:06;18.00;99.90
17172;DHT22;8701;50.150;8.756;2022-09-09T06:17:11;18.00;99.90
17172;DHT22;8701;50.150;8.756;2022-09-09T06:21:16;18.00;99.90
17172;DHT22;8701;50.150;8.756;2022-09-09T06:25:23;17.90;99.90
17172;DHT22;8701;50.150;8.756;2022-09-09T06:29:27;18.10;99.90
17172;DHT22;8701;50.150;8.756;2022-09-09T06:33:31;18.00;99.90
17172;DHT22;8701;50.150;8.756;2022-09-09T06:37:44;18.30;99.90
17172;DHT22;8701;50.150;8.756;2022-09-09T06:41:54;18.50;99.90
17172;DHT22;8701;50.150;8.756;2022-09-09T06:46:20;18.50;99.90
17172;DHT22;8701;50.150;8.756;2022-09-09T06:50:24;18.70;99.90
17172;DHT22;8701;50.150;8.756;2022-09-09T06:54:29;18.80;99.90
17172;DHT22;8701;50.150;8.756;2022-09-09T06:58:33;19.10;99.90
17172;DHT22;8701;50.150;8.756;2022-09-09T07:02:36;19.10;99.90
17172;DHT22;8701;50.150;8.756;2022-09-09T07:06:42;19.00;99.90
17172;DHT22;8701;50.150;8.756;2022-09-09T07:10:48;19.00;99.90
17172;DHT22;8701;50.150;8.756;2022-09-09T07:14:52;19.10;99.90
17172;DHT22;8701;50.150;8.756;2022-09-09T07:18:54;19.10;99.90
17172;DHT22;8701;50.150;8.756;2022-09-09T07:22:59;19.10;99.90
17172;DHT22;8701;50.150;8.756;2022-09-09T07:27:01;18.90;99.90
17172;DHT22;8701;50.150;8.756;2022-09-09T07:31:06;19.00;99.90
17172;DHT22;8701;50.150;8.756;2022-09-09T07:35:09;18.90;99.90
17172;DHT22;8701;50.150;8.756;2022-09-09T07:39:14;18.80;99.90
17172;DHT22;8701;50.150;8.756;2022-09-09T07:43:26;18.70;99.90
17172;DHT22;8701;50.150;8.756;2022-09-09T07:47:29;18.50;99.90
17172;DHT22;8701;50.150;8.756;2022-09-09T07:51:33;18.80;99.90
17172;DHT22;8701;50.150;8.756;2022-09-09T07:55:37;18.80;99.90
17172;DHT22;8701;50.150;8.756;2022-09-09T07:59:39;18.80;99.90
17172;DHT22;8701;50.150;8.756;2022-09-09T08:03:45;18.90;99.90
17172;DHT22;8701;50.150;8.756;2022-09-09T08:07:47;18.90;99.90
17172;DHT22;8701;50.150;8.756;2022-09-09T08:11:50;18.90;99.90
17172;DHT22;8701;50.150;8.756;2022-09-09T08:15:52;18.80;99.90
17172;DHT22;8701;50.150;8.756;2022-09-09T08:19:57;18.80;99.90
17172;DHT22;8701;50.150;8.756;2022-09-09T08:24:04;18.80;99.90
17172;DHT22;8701;50.150;8.756;2022-09-09T08:28:07;18.90;99.90
17172;DHT22;8701;50.150;8.756;2022-09-09T08:32:11;19.00;99.90
17172;DHT22;8701;50.150;8.756;2022-09-09T08:36:20;19.20;99.90
17172;DHT22;8701;50.150;8.756;2022-09-09T08:40:28;19.30;99.90
17172;DHT22;8701;50.150;8.756;2022-09-09T08:44:45;19.60;99.90
17172;DHT22;8701;50.150;8.756;2022-09-09T08:48:57;19.70;99.90
17172;DHT22;8701;50.150;8.756;2022-09-09T08:53:05;19.80;99.90
17172;DHT22;8701;50.150;8.756;2022-09-09T08:57:14;19.90;99.90
17172;DHT22;8701;50.150;8.756;2022-09-09T09:01:41;20.10;99.90
17172;DHT22;8701;50.150;8.756;2022-09-09T09:05:57;20.10;99.90
17172;DHT22;8701;50.150;8.756;2022-09-09T09:10:12;20.10;99.90
17172;DHT22;8701;50.150;8.756;2022-09-09T09:14:19;20.00;99.90
17172;DHT22;8701;50.150;8.756;2022-09-09T09:18:24;20.00;99.90
17172;DHT22;8701;50.150;8.756;2022-09-09T09:22:32;19.90;99.90
17172;DHT22;8701;50.150;8.756;2022-09-09T09:26:43;20.00;99.90
17172;DHT22;8701;50.150;8.756;2022-09-09T09:30:49;20.10;99.90
17172;DHT22;8701;50.150;8.756;2022-09-09T09:34:56;20.30;99.90
17172;DHT22;8701;50.150;8.756;2022-09-09T09:39:01;20.60;99.90
17172;DHT22;8701;50.150;8.756;2022-09-09T09:43:20;20.60;99.90
17172;DHT22;8701;50.150;8.756;2022-09-09T09:47:23;20.40;99.90
17172;DHT22;8701;50.150;8.756;2022-09-09T09:51:34;20.50;99.90
17172;DHT22;8701;50.150;8.756;2022-09-09T09:55:48;20.40;99.90
17172;DHT22;8701;50.150;8.756;2022-09-09T10:00:04;20.10;99.90
17172;DHT22;8701;50.150;8.756;2022-09-09T10:04:19;19.80;99.90
17172;DHT22;8701;50.150;8.756;2022-09-09T10:23:36;19.00;99.90
17172;DHT22;8701;50.150;8.756;2022-09-09T10:27:56;22.30;99.90
17172;DHT22;8701;50.150;8.756;2022-09-09T10:36:46;24.10;99.90
17172;DHT22;8701;50.150;8.756;2022-09-09T11:02:21;23.10;99.90
17172;DHT22;8701;50.150;8.756;2022-09-09T11:06:31;22.30;99.90
17172;DHT22;8701;50.150;8.756;2022-09-09T11:10:39;21.90;99.90
17172;DHT22;8701;50.150;8.756;2022-09-09T11:14:46;21.50;99.90
17172;DHT22;8701;50.150;8.756;2022-09-09T11:18:57;21.10;99.90
17172;DHT22;8701;50.150;8.756;2022-09-09T11:23:04;22.20;99.90
17172;DHT22;8701;50.150;8.756;2022-09-09T11:27:13;24.00;99.90
17172;DHT22;8701;50.150;8.756;2022-09-09T11:31:32;26.20;99.90
17172;DHT22;8701;50.150;8.756;2022-09-09T11:35:53;26.70;99.90
17172;DHT22;8701;50.150;8.756;2022-09-09T11:40:19;27.00;99.90
17172;DHT22;8701;50.150;8.756;2022-09-09T11:44:28;26.20;99.90
17172;DHT22;8701;50.150;8.756;2022-09-09T11:48:34;25.00;99.90
17172;DHT22;8701;50.150;8.756;2022-09-09T11:52:40;25.00;99.90
17172;DHT22;8701;50.150;8.756;2022-09-09T11:56:46;27.40;99.90
17172;DHT22;8701;50.150;8.756;2022-09-09T12:00:49;29.60;99.90
17172;DHT22;8701;50.150;8.756;2022-09-09T12:04:58;30.20;95.10
17172;DHT22;8701;50.150;8.756;2022-09-09T12:09:09;28.00;94.60
17172;DHT22;8701;50.150;8.756;2022-09-09T12:13:16;25.80;97.20
17172;DHT22;8701;50.150;8.756;2022-09-09T12:17:22;24.90;99.90
17172;DHT22;8701;50.150;8.756;2022-09-09T12:21:32;24.00;99.90
17172;DHT22;8701;50.150;8.756;2022-09-09T12:25:52;24.50;99.90
17172;DHT22;8701;50.150;8.756;2022-09-09T12:30:01;25.10;99.90
17172;DHT22;8701;50.150;8.756;2022-09-09T12:34:10;24.70;99.90
17172;DHT22;8701;50.150;8.756;2022-09-09T12:38:15;24.30;99.90
17172;DHT22;8701;50.150;8.756;2022-09-09T12:42:23;23.90;99.90
17172;DHT22;8701;50.150;8.756;2022-09-09T12:46:33;23.50;99.90
17172;DHT22;8701;50.150;8.756;2022-09-09T12:50:42;23.20;99.90
17172;DHT22;8701;50.150;8.756;2022-09-09T12:54:47;22.80;99.90
17172;DHT22;8701;50.150;8.756;2022-09-09T12:58:56;22.50;99.90
17172;DHT22;8701;50.150;8.756;2022-09-09T13:03:01;22.00;99.90
17172;DHT22;8701;50.150;8.756;2022-09-09T13:07:07;20.40;99.90
17172;DHT22;8701;50.150;8.756;2022-09-09T13:11:14;19.70;99.90
17172;DHT22;8701;50.150;8.756;2022-09-09T13:15:24;19.90;99.90
17172;DHT22;8701;50.150;8.756;2022-09-09T13:19:31;19.70;99.90
17172;DHT22;8701;50.150;8.756;2022-09-09T13:23:36;19.90;99.90
17172;DHT22;8701;50.150;8.756;2022-09-09T13:27:41;20.10;99.90
17172;DHT22;8701;50.150;8.756;2022-09-09T13:31:48;20.00;99.90
17172;DHT22;8701;50.150;8.756;2022-09-09T13:35:56;20.10;99.90
17172;DHT22;8701;50.150;8.756;2022-09-09T13:39:59;20.30;99.90
17172;DHT22;8701;50.150;8.756;2022-09-09T13:44:01;20.20;99.90
17172;DHT22;8701;50.150;8.756;2022-09-09T13:48:10;20.60;99.90
17172;DHT22;8701;50.150;8.756;2022-09-09T13:52:14;20.90;99.90
17172;DHT22;8701;50.150;8.756;2022-09-09T13:56:17;21.30;99.90
17172;DHT22;8701;50.150;8.756;2022-09-09T14:00:21;21.70;99.90
17172;DHT22;8701;50.150;8.756;2022-09-09T14:04:24;22.00;99.90
17172;DHT22;8701;50.150;8.756;2022-09-09T14:08:27;21.70;99.90
17172;DHT22;8701;50.150;8.756;2022-09-09T14:12:38;21.80;99.90
17172;DHT22;8701;50.150;8.756;2022-09-09T14:16:40;21.80;99.90
17172;DHT22;8701;50.150;8.756;2022-09-09T14:20:44;21.60;99.90
17172;DHT22;8701;50.150;8.756;2022-09-09T14:24:49;21.40;99.90
17172;DHT22;8701;50.150;8.756;2022-09-09T14:28:52;21.30;99.90
17172;DHT22;8701;50.150;8.756;2022-09-09T14:32:54;21.10;99.90
17172;DHT22;8701;50.150;8.756;2022-09-09T14:36:58;21.10;99.90
17172;DHT22;8701;50.150;8.756;2022-09-09T14:41:01;20.80;99.90
17172;DHT22;8701;50.150;8.756;2022-09-09T14:45:05;20.70;99.90
17172;DHT22;8701;50.150;8.756;2022-09-09T14:49:08;20.60;99.90
17172;DHT22;8701;50.150;8.756;2022-09-09T14:53:12;20.50;99.90
17172;DHT22;8701;50.150;8.756;2022-09-09T14:57:15;20.50;99.90
17172;DHT22;8701;50.150;8.756;2022-09-09T15:01:18;20.50;99.90
17172;DHT22;8701;50.150;8.756;2022-09-09T15:05:22;20.60;99.90
17172;DHT22;8701;50.150;8.756;2022-09-09T15:09:26;20.60;99.90
17172;DHT22;8701;50.150;8.756;2022-09-09T15:13:29;20.80;99.90
17172;DHT22;8701;50.150;8.756;2022-09-09T15:17:31;20.80;99.90
17172;DHT22;8701;50.150;8.756;2022-09-09T15:21:35;20.80;99.90
17172;DHT22;8701;50.150;8.756;2022-09-09T15:25:50;21.00;99.90
17172;DHT22;8701;50.150;8.756;2022-09-09T15:29:53;20.90;99.90
17172;DHT22;8701;50.150;8.756;2022-09-09T15:33:57;20.70;99.90
17172;DHT22;8701;50.150;8.756;2022-09-09T15:38:01;20.40;99.90
17172;DHT22;8701;50.150;8.756;2022-09-09T15:42:07;20.50;99.90
17172;DHT22;8701;50.150;8.756;2022-09-09T15:46:23;20.70;99.90
17172;DHT22;8701;50.150;8.756;2022-09-09T15:50:28;21.00;99.90
17172;DHT22;8701;50.150;8.756;2022-09-09T15:54:35;21.20;99.90
17172;DHT22;8701;50.150;8.756;2022-09-09T15:58:41;20.90;99.90
17172;DHT22;8701;50.150;8.756;2022-09-09T16:02:45;20.90;99.90
17172;DHT22;8701;50.150;8.756;2022-09-09T16:06:48;20.80;99.90
17172;DHT22;8701;50.150;8.756;2022-09-09T16:10:51;20.70;99.90
17172;DHT22;8701;50.150;8.756;2022-09-09T16:14:55;20.50;99.90
17172;DHT22;8701;50.150;8.756;2022-09-09T16:18:59;20.50;99.90
17172;DHT22;8701;50.150;8.756;2022-09-09T16:23:01;20.40;99.90
17172;DHT22;8701;50.150;8.756;2022-09-09T16:27:04;20.30;99.90
17172;DHT22;8701;50.150;8.756;2022-09-09T16:31:11;20.30;99.90
17172;DHT22;8701;50.150;8.756;2022-09-09T16:35:16;20.20;99.90
17172;DHT22;8701;50.150;8.756;2022-09-09T16:39:21;20.00;99.90
17172;DHT22;8701;50.150;8.756;2022-09-09T16:43:23;20.00;99.90
17172;DHT22;8701;50.150;8.756;2022-09-09T16:47:27;19.80;99.90
17172;DHT22;8701;50.150;8.756;2022-09-09T16:51:32;19.70;99.90
17172;DHT22;8701;50.150;8.756;2022-09-09T16:55:39;19.70;99.90
17172;DHT22;8701;50.150;8.756;2022-09-09T16:59:42;19.60;99.90
17172;DHT22;8701;50.150;8.756;2022-09-09T17:03:52;19.50;99.90
17172;DHT22;8701;50.150;8.756;2022-09-09T17:07:54;19.40;99.90
17172;DHT22;8701;50.150;8.756;2022-09-09T17:11:58;19.40;99.90
17172;DHT22;8701;50.150;8.756;2022-09-09T17:16:03;19.40;99.90
17172;DHT22;8701;50.150;8.756;2022-09-09T17:20:08;19.40;99.90
17172;DHT22;8701;50.150;8.756;2022-09-09T17:24:11;19.40;99.90
17172;DHT22;8701;50.150;8.756;2022-09-09T17:28:13;19.30;99.90
17172;DHT22;8701;50.150;8.756;2022-09-09T17:32:16;19.30;99.90
17172;DHT22;8701;50.150;8.756;2022-09-09T17:36:22;19.30;99.90
17172;DHT22;8701;50.150;8.756;2022-09-09T17:40:24;19.20;99.90
17172;DHT22;8701;50.150;8.756;2022-09-09T17:44:27;19.10;99.90
17172;DHT22;8701;50.150;8.756;2022-09-09T17:48:34;19.20;99.90
17172;DHT22;8701;50.150;8.756;2022-09-09T17:52:38;19.20;99.90
17172;DHT22;8701;50.150;8.756;2022-09-09T17:56:42;19.10;99.90
17172;DHT22;8701;50.150;8.756;2022-09-09T18:00:45;18.90;99.90
17172;DHT22;8701;50.150;8.756;2022-09-09T18:04:47;18.90;99.90
17172;DHT22;8701;50.150;8.756;2022-09-09T18:08:54;18.90;99.90
17172;DHT22;8701;50.150;8.756;2022-09-09T18:12:57;18.70;99.90
17172;DHT22;8701;50.150;8.756;2022-09-09T18:17:02;18.80;99.90
17172;DHT22;8701;50.150;8.756;2022-09-09T18:21:07;19.00;99.90
17172;DHT22;8701;50.150;8.756;2022-09-09T18:25:11;18.80;99.90
17172;DHT22;8701;50.150;8.756;2022-09-09T18:29:15;18.60;99.90
17172;DHT22;8701;50.150;8.756;2022-09-09T18:33:20;18.50;99.90
17172;DHT22;8701;50.150;8.756;2022-09-09T18:37:22;18.40;99.90
17172;DHT22;8701;50.150;8.756;2022-09-09T18:41:27;18.40;99.90
17172;DHT22;8701;50.150;8.756;2022-09-09T18:45:34;18.30;99.90
17172;DHT22;8701;50.150;8.756;2022-09-09T18:49:38;18.30;99.90
17172;DHT22;8701;50.150;8.756;2022-09-09T18:53:41;18.30;99.90
17172;DHT22;8701;50.150;8.756;2022-09-09T18:57:45;18.30;99.90
17172;DHT22;8701;50.150;8.756;2022-09-09T19:01:49;18.20;99.90
17172;DHT22;8701;50.150;8.756;2022-09-09T19:05:52;18.20;99.90
17172;DHT22;8701;50.150;8.756;2022-09-09T19:09:54;18.20;99.90
17172;DHT22;8701;50.150;8.756;2022-09-09T19:14:00;18.10;99.90
17172;DHT22;8701;50.150;8.756;2022-09-09T19:18:03;18.00;99.90
17172;DHT22;8701;50.150;8.756;2022-09-09T19:22:05;17.90;99.90
17172;DHT22;8701;50.150;8.756;2022-09-09T19:26:12;17.80;99.90
17172;DHT22;8701;50.150;8.756;2022-09-09T19:30:17;17.70;99.90
17172;DHT22;8701;50.150;8.756;2022-09-09T19:34:20;17.70;99.90
17172;DHT22;8701;50.150;8.756;2022-09-09T19:38:22;17.60;99.90
17172;DHT22;8701;50.150;8.756;2022-09-09T19:42:25;17.50;99.90
17172;DHT22;8701;50.150;8.756;2022-09-09T19:46:32;17.60;99.90
17172;DHT22;8701;50.150;8.756;2022-09-09T19:50:35;17.40;99.90
17172;DHT22;8701;50.150;8.756;2022-09-09T19:54:38;17.30;99.90
17172;DHT22;8701;50.150;8.756;2022-09-09T19:58:41;17.20;99.90
17172;DHT22;8701;50.150;8.756;2022-09-09T20:02:46;17.10;99.90
17172;DHT22;8701;50.150;8.756;2022-09-09T20:06:51;17.00;99.90
17172;DHT22;8701;50.150;8.756;2022-09-09T20:10:53;17.00;99.90
17172;DHT22;8701;50.150;8.756;2022-09-09T20:14:56;17.00;99.90
17172;DHT22;8701;50.150;8.756;2022-09-09T20:19:01;17.00;99.90
17172;DHT22;8701;50.150;8.756;2022-09-09T20:23:03;17.00;99.90
17172;DHT22;8701;50.150;8.756;2022-09-09T20:27:05;16.90;99.90
17172;DHT22;8701;50.150;8.756;2022-09-09T20:31:10;17.00;99.90
17172;DHT22;8701;50.150;8.756;2022-09-09T20:35:15;16.90;99.90
17172;DHT22;8701;50.150;8.756;2022-09-09T20:39:18;16.80;99.90
17172;DHT22;8701;50.150;8.756;2022-09-09T20:43:22;16.70;99.90
17172;DHT22;8701;50.150;8.756;2022-09-09T20:47:24;16.60;99.90
17172;DHT22;8701;50.150;8.756;2022-09-09T20:51:29;16.50;99.90
17172;DHT22;8701;50.150;8.756;2022-09-09T20:55:32;16.50;99.90
17172;DHT22;8701;50.150;8.756;2022-09-09T20:59:35;16.40;99.90
17172;DHT22;8701;50.150;8.756;2022-09-09T21:03:37;16.40;99.90
17172;DHT22;8701;50.150;8.756;2022-09-09T21:07:41;16.40;99.90
17172;DHT22;8701;50.150;8.756;2022-09-09T21:11:44;16.30;99.90
17172;DHT22;8701;50.150;8.756;2022-09-09T21:15:47;16.20;99.90
17172;DHT22;8701;50.150;8.756;2022-09-09T21:19:50;16.20;99.90
17172;DHT22;8701;50.150;8.756;2022-09-09T21:23:55;16.10;99.90
17172;DHT22;8701;50.150;8.756;2022-09-09T21:27:58;16.20;99.90
17172;DHT22;8701;50.150;8.756;2022-09-09T21:32:00;16.20;99.90
17172;DHT22;8701;50.150;8.756;2022-09-09T21:36:05;16.20;99.90
17172;DHT22;8701;50.150;8.756;2022-09-09T21:40:09;16.20;99.90
17172;DHT22;8701;50.150;8.756;2022-09-09T21:44:11;16.10;99.90
17172;DHT22;8701;50.150;8.756;2022-09-09T21:48:15;16.10;99.90
17172;DHT22;8701;50.150;8.756;2022-09-09T21:52:18;15.90;99.90
17172;DHT22;8701;50.150;8.756;2022-09-09T21:56:22;16.00;99.90
17172;DHT22;8701;50.150;8.756;2022-09-09T22:00:24;16.20;99.90
17172;DHT22;8701;50.150;8.756;2022-09-09T22:04:27;15.90;99.90
17172;DHT22;8701;50.150;8.756;2022-09-09T22:08:29;15.90;99.90
17172;DHT22;8701;50.150;8.756;2022-09-09T22:12:33;15.90;99.90
17172;DHT22;8701;50.150;8.756;2022-09-09T22:16:35;15.90;99.90
17172;DHT22;8701;50.150;8.756;2022-09-09T22:20:40;15.90;99.90
17172;DHT22;8701;50.150;8.756;2022-09-09T22:24:43;15.90;99.90
17172;DHT22;8701;50.150;8.756;2022-09-09T22:28:47;15.90;99.90
17172;DHT22;8701;50.150;8.756;2022-09-09T22:32:49;15.90;99.90
17172;DHT22;8701;50.150;8.756;2022-09-09T22:36:51;15.90;99.90
17172;DHT22;8701;50.150;8.756;2022-09-09T22:40:54;15.90;99.90
17172;DHT22;8701;50.150;8.756;2022-09-09T22:44:57;15.90;99.90
17172;DHT22;8701;50.150;8.756;2022-09-09T22:49:00;15.90;99.90
17172;DHT22;8701;50.150;8.756;2022-09-09T22:53:03;15.90;99.90
17172;DHT22;8701;50.150;8.756;2022-09-09T22:57:06;15.90;99.90
17172;DHT22;8701;50.150;8.756;2022-09-09T23:01:13;15.90;99.90
17172;DHT22;8701;50.150;8.756;2022-09-09T23:05:16;15.80;99.90
17172;DHT22;8701;50.150;8.756;2022-09-09T23:09:19;15.80;99.90
17172;DHT22;8701;50.150;8.756;2022-09-09T23:13:22;15.90;99.90
17172;DHT22;8701;50.150;8.756;2022-09-09T23:17:26;15.80;99.90
17172;DHT22;8701;50.150;8.756;2022-09-09T23:21:30;15.80;99.90
17172;DHT22;8701;50.150;8.756;2022-09-09T23:25:34;15.80;99.90
17172;DHT22;8701;50.150;8.756;2022-09-09T23:29:36;15.80;99.90
17172;DHT22;8701;50.150;8.756;2022-09-09T23:33:41;15.90;99.90
17172;DHT22;8701;50.150;8.756;2022-09-09T23:37:44;15.90;99.90
17172;DHT22;8701;50.150;8.756;2022-09-09T23:41:48;15.90;99.90
17172;DHT22;8701;50.150;8.756;2022-09-09T23:45:51;16.00;99.90
17172;DHT22;8701;50.150;8.756;2022-09-09T23:49:55;15.90;99.90
17172;DHT22;8701;50.150;8.756;2022-09-09T23:53:58;16.00;99.90
17172;DHT22;8701;50.150;8.756;2022-09-09T23:58:01;16.00;99.90
